createdAt,value
2022-08-03T00:02:17.638Z,97683.00
2022-08-03T00:04:44.667Z,97697.00
2022-08-03T00:07:11.556Z,97696.00
2022-08-03T00:09:38.445Z,97698.00
2022-08-03T00:12:05.912Z,97683.00
2022-08-03T00:14:33.013Z,97686.00
2022-08-03T00:16:59.929Z,97674.00
2022-08-03T00:19:27.881Z,97672.00
2022-08-03T00:21:54.710Z,97660.00
2022-08-03T00:24:21.621Z,97667.00
2022-08-03T00:26:48.629Z,97661.00
2022-08-03T00:29:15.687Z,97677.00
2022-08-03T00:31:52.725Z,97670.00
2022-08-03T00:34:34.552Z,97667.00
2022-08-03T00:37:03.934Z,97674.00
2022-08-03T00:39:31.935Z,97665.00
2022-08-03T00:42:03.961Z,97656.00
2022-08-03T00:44:31.403Z,97657.00
2022-08-03T00:46:58.280Z,97661.00
2022-08-03T00:49:28.015Z,97653.00
2022-08-03T00:51:55.414Z,97649.00
2022-08-03T00:54:23.398Z,97653.00
2022-08-03T00:57:00.102Z,97655.00
2022-08-03T00:59:28.370Z,97650.00
2022-08-03T01:01:55.542Z,97648.00
2022-08-03T01:04:22.700Z,97650.00
2022-08-03T01:07:42.711Z,97664.00
2022-08-03T01:10:39.269Z,97667.00
2022-08-03T01:14:04.796Z,97641.00
2022-08-03T01:16:38.023Z,97650.00
2022-08-03T01:19:16.819Z,97650.00
2022-08-03T01:22:27.366Z,97652.00
2022-08-03T01:25:14.768Z,97658.00
2022-08-03T01:28:21.590Z,97658.00
2022-08-03T01:30:51.731Z,97658.00
2022-08-03T01:33:32.460Z,97652.00
2022-08-03T01:36:05.227Z,97651.00
2022-08-03T01:38:43.252Z,97654.00
2022-08-03T01:41:19.108Z,97639.00
2022-08-03T01:44:27.263Z,97643.00
2022-08-03T01:46:40.528Z,97638.00
2022-08-03T01:49:17.009Z,97646.00
2022-08-03T01:51:57.975Z,97637.00
2022-08-03T01:54:40.876Z,97638.00
2022-08-03T01:57:09.797Z,97643.00
2022-08-03T01:59:41.531Z,97647.00
2022-08-03T02:02:28.677Z,97625.00
2022-08-03T02:05:04.876Z,97635.00
2022-08-03T02:07:37.026Z,97647.00
2022-08-03T02:10:07.358Z,97638.00
2022-08-03T02:12:37.401Z,97626.00
2022-08-03T02:15:07.632Z,97638.00
2022-08-03T02:17:39.587Z,97633.00
2022-08-03T02:20:11.218Z,97636.00
2022-08-03T02:22:41.533Z,97648.00
2022-08-03T02:25:11.493Z,97632.00
2022-08-03T02:27:52.906Z,97635.00
2022-08-03T02:30:21.939Z,97633.00
2022-08-03T02:32:55.898Z,97630.00
2022-08-03T02:35:26.568Z,97638.00
2022-08-03T02:38:02.070Z,97638.00
2022-08-03T02:40:31.245Z,97635.00
2022-08-03T02:43:05.191Z,97630.00
2022-08-03T02:45:42.553Z,97634.00
2022-08-03T02:48:19.875Z,97645.00
2022-08-03T02:50:49.756Z,97643.00
2022-08-03T02:53:19.107Z,97635.00
2022-08-03T02:55:49.126Z,97632.00
2022-08-03T02:58:21.320Z,97630.00
2022-08-03T03:00:51.674Z,97631.00
2022-08-03T03:03:20.876Z,97640.00
2022-08-03T03:05:57.419Z,97625.00
2022-08-03T03:08:28.687Z,97628.00
2022-08-03T03:11:01.213Z,97638.00
2022-08-03T03:13:30.616Z,97643.00
2022-08-03T03:16:02.520Z,97630.00
2022-08-03T03:18:31.750Z,97625.00
2022-08-03T03:21:01.342Z,97621.00
2022-08-03T03:23:29.537Z,97639.00
2022-08-03T03:25:58.534Z,97627.00
2022-08-03T03:28:26.566Z,97614.00
2022-08-03T03:30:53.657Z,97628.00
2022-08-03T03:33:22.721Z,97624.00
2022-08-03T03:35:51.513Z,97626.00
2022-08-03T03:38:19.793Z,97630.00
2022-08-03T03:40:47.531Z,97631.00
2022-08-03T03:43:14.725Z,97631.00
2022-08-03T03:45:43.169Z,97625.00
2022-08-03T03:48:10.723Z,97629.00
2022-08-03T03:50:40.835Z,97638.00
2022-08-03T03:53:13.284Z,97624.00
2022-08-03T03:55:59.254Z,97626.00
2022-08-03T03:58:29.071Z,97630.00
2022-08-03T04:00:56.184Z,97626.00
2022-08-03T04:03:23.295Z,97624.00
2022-08-03T04:06:25.921Z,97628.00
2022-08-03T04:09:11.751Z,97632.00
2022-08-03T04:11:52.019Z,97620.00
2022-08-03T04:14:32.559Z,97618.00
2022-08-03T04:17:03.203Z,97625.00
2022-08-03T04:19:40.689Z,97620.00
2022-08-03T04:22:12.051Z,97629.00
2022-08-03T04:24:44.782Z,97633.00
2022-08-03T04:27:16.459Z,97630.00
2022-08-03T04:29:49.203Z,97621.00
2022-08-03T04:32:18.120Z,97628.00
2022-08-03T04:34:45.332Z,97626.00
2022-08-03T04:37:24.444Z,97632.00
2022-08-03T04:39:54.166Z,97622.00
2022-08-03T04:42:25.947Z,97637.00
2022-08-03T04:45:00.837Z,97635.00
2022-08-03T04:47:32.175Z,97621.00
2022-08-03T04:50:04.945Z,97634.00
2022-08-03T04:52:34.988Z,97641.00
2022-08-03T04:55:02.028Z,97640.00
2022-08-03T04:57:28.888Z,97625.00
2022-08-03T05:00:02.055Z,97643.00
2022-08-03T05:02:31.699Z,97626.00
2022-08-03T05:04:59.793Z,97645.00
2022-08-03T05:07:35.915Z,97636.00
2022-08-03T05:10:14.682Z,97633.00
2022-08-03T05:12:44.674Z,97650.00
2022-08-03T05:15:12.077Z,97627.00
2022-08-03T05:17:39.208Z,97645.00
2022-08-03T05:20:06.895Z,97637.00
2022-08-03T05:22:33.962Z,97643.00
2022-08-03T05:25:02.365Z,97644.00
2022-08-03T05:27:29.446Z,97644.00
2022-08-03T05:29:56.398Z,97632.00
2022-08-03T05:32:43.369Z,97634.00
2022-08-03T05:35:55.700Z,97640.00
2022-08-03T05:37:57.162Z,97643.00
2022-08-03T05:40:24.829Z,97647.00
2022-08-03T05:42:53.793Z,97648.00
2022-08-03T05:45:23.266Z,97633.00
2022-08-03T05:47:53.593Z,97640.00
2022-08-03T05:50:21.438Z,97631.00
2022-08-03T05:52:48.398Z,97636.00
2022-08-03T05:55:16.091Z,97634.00
2022-08-03T05:57:43.663Z,97638.00
2022-08-03T06:00:12.530Z,97641.00
2022-08-03T06:02:40.899Z,97627.00
2022-08-03T06:05:08.605Z,97648.00
2022-08-03T06:07:36.124Z,97635.00
2022-08-03T06:10:36.105Z,97646.00
2022-08-03T06:12:52.541Z,97654.00
2022-08-03T06:15:20.922Z,97643.00
2022-08-03T06:17:52.320Z,97638.00
2022-08-03T06:20:21.150Z,97635.00
2022-08-03T06:22:50.717Z,97636.00
2022-08-03T06:25:21.353Z,97629.00
2022-08-03T06:27:48.526Z,97635.00
2022-08-03T06:30:20.726Z,97629.00
2022-08-03T06:32:51.758Z,97626.00
2022-08-03T06:35:20.275Z,97635.00
2022-08-03T06:37:52.111Z,97635.00
2022-08-03T06:40:28.449Z,97647.00
2022-08-03T06:43:00.935Z,97636.00
2022-08-03T06:45:31.931Z,97638.00
2022-08-03T06:48:07.021Z,97652.00
2022-08-03T06:50:35.620Z,97646.00
2022-08-03T06:53:04.486Z,97646.00
2022-08-03T06:55:32.735Z,97655.00
2022-08-03T06:58:00.088Z,97644.00
2022-08-03T07:00:30.880Z,97647.00
2022-08-03T07:02:58.399Z,97637.00
2022-08-03T07:05:26.007Z,97640.00
2022-08-03T07:08:01.823Z,97642.00
2022-08-03T07:10:28.969Z,97630.00
2022-08-03T07:12:56.916Z,97639.00
2022-08-03T07:15:53.938Z,97652.00
2022-08-03T07:18:11.994Z,97641.00
2022-08-03T07:20:38.972Z,97646.00
2022-08-03T07:23:06.031Z,97647.00
2022-08-03T07:25:32.920Z,97644.00
2022-08-03T07:27:59.883Z,97633.00
2022-08-03T07:30:26.800Z,97650.00
2022-08-03T07:32:53.877Z,97645.00
2022-08-03T07:35:24.520Z,97645.00
2022-08-03T07:37:54.262Z,97636.00
2022-08-03T07:40:22.806Z,97649.00
2022-08-03T07:42:52.275Z,97641.00
2022-08-03T07:45:23.241Z,97647.00
2022-08-03T07:47:53.394Z,97648.00
2022-08-03T07:50:20.853Z,97632.00
2022-08-03T07:52:48.042Z,97642.00
2022-08-03T07:55:17.043Z,97644.00
2022-08-03T07:57:44.252Z,97639.00
2022-08-03T08:00:18.719Z,97642.00
2022-08-03T08:02:45.980Z,97642.00
2022-08-03T08:05:12.991Z,97649.00
2022-08-03T08:07:40.253Z,97640.00
2022-08-03T08:10:10.101Z,97647.00
2022-08-03T08:12:39.433Z,97648.00
2022-08-03T08:15:08.077Z,97652.00
2022-08-03T08:17:47.845Z,97640.00
2022-08-03T08:20:28.078Z,97634.00
2022-08-03T08:23:01.623Z,97632.00
2022-08-03T08:25:31.357Z,97634.00
2022-08-03T08:28:30.485Z,97637.00
2022-08-03T08:30:50.002Z,97648.00
2022-08-03T08:33:23.009Z,97643.00
2022-08-03T08:35:53.083Z,97638.00
2022-08-03T08:38:20.239Z,97624.00
2022-08-03T08:40:49.092Z,97644.00
2022-08-03T08:43:16.237Z,97639.00
2022-08-03T08:45:44.773Z,97632.00
2022-08-03T08:48:14.908Z,97632.00
2022-08-03T08:50:42.255Z,97646.00
2022-08-03T08:53:17.433Z,97631.00
2022-08-03T08:55:59.645Z,97628.00
2022-08-03T08:58:34.662Z,97641.00
2022-08-03T09:01:02.266Z,97637.00
2022-08-03T09:03:30.806Z,97646.00
2022-08-03T09:06:02.274Z,97630.00
2022-08-03T09:08:31.645Z,97629.00
2022-08-03T09:11:00.025Z,97632.00
2022-08-03T09:13:27.219Z,97628.00
2022-08-03T09:16:19.331Z,97627.00
2022-08-03T09:18:54.834Z,97643.00
2022-08-03T09:21:32.132Z,97624.00
2022-08-03T09:24:04.790Z,97637.00
2022-08-03T09:26:35.330Z,97631.00
2022-08-03T09:29:15.412Z,97639.00
2022-08-03T09:31:45.560Z,97640.00
2022-08-03T09:34:18.181Z,97635.00
2022-08-03T09:36:48.278Z,97625.00
2022-08-03T09:39:26.835Z,97626.00
2022-08-03T09:42:18.381Z,97626.00
2022-08-03T09:44:48.898Z,97624.00
2022-08-03T09:47:37.551Z,97631.00
2022-08-03T09:50:12.888Z,97620.00
2022-08-03T09:52:52.046Z,97616.00
2022-08-03T09:56:33.720Z,97619.00
2022-08-03T09:58:12.668Z,97621.00
2022-08-03T10:00:59.715Z,97627.00
2022-08-03T10:03:30.813Z,97622.00
2022-08-03T10:05:59.980Z,97630.00
2022-08-03T10:08:27.898Z,97630.00
2022-08-03T10:10:55.336Z,97626.00
2022-08-03T10:13:23.528Z,97623.00
2022-08-03T10:16:23.005Z,97638.00
2022-08-03T10:18:37.897Z,97620.00
2022-08-03T10:21:10.610Z,97634.00
2022-08-03T10:23:41.258Z,97616.00
2022-08-03T10:26:12.470Z,97628.00
2022-08-03T10:28:47.209Z,97632.00
2022-08-03T10:31:18.325Z,97615.00
2022-08-03T10:33:53.200Z,97624.00
2022-08-03T10:36:27.284Z,97625.00
2022-08-03T10:38:57.044Z,97620.00
2022-08-03T10:41:32.384Z,97615.00
2022-08-03T10:44:07.076Z,97606.00
2022-08-03T10:46:44.172Z,97601.00
2022-08-03T10:49:33.903Z,97588.00
2022-08-03T10:52:10.468Z,97604.00
2022-08-03T10:55:03.225Z,97600.00
2022-08-03T10:57:58.428Z,97602.00
2022-08-03T11:00:30.019Z,97592.00
2022-08-03T11:03:16.849Z,97594.00
2022-08-03T11:05:47.353Z,97602.00
2022-08-03T11:08:30.660Z,97592.00
2022-08-03T11:11:02.282Z,97590.00
2022-08-03T11:13:33.466Z,97581.00
2022-08-03T11:16:21.490Z,97584.00
2022-08-03T11:19:01.789Z,97580.00
2022-08-03T11:21:49.569Z,97596.00
2022-08-03T11:24:39.198Z,97588.00
2022-08-03T11:27:15.858Z,97582.00
2022-08-03T11:29:58.027Z,97574.00
2022-08-03T11:32:40.429Z,97582.00
2022-08-03T11:35:33.554Z,97580.00
2022-08-03T11:38:04.313Z,97567.00
2022-08-03T11:40:52.530Z,97576.00
2022-08-03T11:43:30.388Z,97572.00
2022-08-03T11:46:01.384Z,97576.00
2022-08-03T11:48:43.186Z,97570.00
2022-08-03T11:51:31.819Z,97574.00
2022-08-03T11:54:03.025Z,97583.00
2022-08-03T11:56:48.743Z,97579.00
2022-08-03T11:59:21.851Z,97575.00
2022-08-03T12:01:50.371Z,97580.00
2022-08-03T12:04:17.420Z,97578.00
2022-08-03T12:07:00.347Z,97578.00
2022-08-03T12:09:27.537Z,97584.00
2022-08-03T12:12:00.149Z,97589.00
2022-08-03T12:14:49.019Z,97581.00
2022-08-03T12:17:16.807Z,97586.00
2022-08-03T12:19:44.631Z,97584.00
2022-08-03T12:22:11.587Z,97571.00
2022-08-03T12:24:47.469Z,97571.00
2022-08-03T12:27:26.045Z,97563.00
2022-08-03T12:29:58.372Z,97563.00
2022-08-03T12:32:28.235Z,97570.00
2022-08-03T12:35:00.692Z,97566.00
2022-08-03T12:37:28.396Z,97563.00
2022-08-03T12:40:02.528Z,97566.00
2022-08-03T12:42:38.342Z,97571.00
2022-08-03T12:45:24.633Z,97576.00
2022-08-03T12:47:58.002Z,97558.00
2022-08-03T12:50:34.328Z,97559.00
2022-08-03T12:53:05.232Z,97564.00
2022-08-03T12:55:57.739Z,97553.00
2022-08-03T12:58:36.295Z,97564.00
2022-08-03T13:01:10.102Z,97561.00
2022-08-03T13:03:49.998Z,97572.00
2022-08-03T13:06:25.545Z,97561.00
2022-08-03T13:09:05.972Z,97566.00
2022-08-03T13:11:57.630Z,97568.00
2022-08-03T13:14:21.353Z,97562.00
2022-08-03T13:16:49.592Z,97554.00
2022-08-03T13:19:16.666Z,97566.00
2022-08-03T13:22:03.470Z,97556.00
2022-08-03T13:24:33.042Z,97561.00
2022-08-03T13:28:01.811Z,97564.00
2022-08-03T13:29:50.042Z,97562.00
2022-08-03T13:32:17.166Z,97548.00
2022-08-03T13:34:44.187Z,97560.00
2022-08-03T13:37:12.097Z,97554.00
2022-08-03T13:39:59.801Z,97562.00
2022-08-03T13:42:31.184Z,97548.00
2022-08-03T13:44:59.274Z,97545.00
2022-08-03T13:47:27.096Z,97543.00
2022-08-03T13:50:01.861Z,97544.00
2022-08-03T13:52:36.670Z,97536.00
2022-08-03T13:55:07.153Z,97536.00
2022-08-03T13:58:04.251Z,97536.00
2022-08-03T14:00:29.015Z,97537.00
2022-08-03T14:03:06.587Z,97526.00
2022-08-03T14:05:38.619Z,97533.00
2022-08-03T14:08:07.257Z,97530.00
2022-08-03T14:10:43.303Z,97537.00
2022-08-03T14:13:17.588Z,97527.00
2022-08-03T14:15:49.886Z,97518.00
2022-08-03T14:18:27.627Z,97525.00
2022-08-03T14:21:02.000Z,97529.00
2022-08-03T14:23:32.837Z,97516.00
2022-08-03T14:26:00.124Z,97514.00
2022-08-03T14:28:27.310Z,97521.00
2022-08-03T14:30:55.963Z,97515.00
2022-08-03T14:33:24.693Z,97498.00
2022-08-03T14:35:52.627Z,97499.00
2022-08-03T14:38:20.765Z,97502.00
2022-08-03T14:40:48.444Z,97511.00
2022-08-03T14:43:18.009Z,97510.00
2022-08-03T14:45:45.175Z,97513.00
2022-08-03T14:50:30.417Z,97509.00
2022-08-03T14:50:59.692Z,97493.00
2022-08-03T14:53:26.709Z,97512.00
2022-08-03T14:55:53.642Z,97496.00
2022-08-03T14:58:23.396Z,97498.00
2022-08-03T15:00:52.132Z,97489.00
2022-08-03T15:03:23.972Z,97491.00
2022-08-03T15:05:56.743Z,97495.00
2022-08-03T15:08:26.143Z,97489.00
2022-08-03T15:10:54.679Z,97482.00
2022-08-03T15:13:22.318Z,97479.00
2022-08-03T15:15:49.859Z,97470.00
2022-08-03T15:18:16.954Z,97478.00
2022-08-03T15:20:45.962Z,97474.00
2022-08-03T15:23:15.881Z,97482.00
2022-08-03T15:26:29.611Z,97470.00
2022-08-03T15:28:33.292Z,97466.00
2022-08-03T15:31:01.711Z,97462.00
2022-08-03T15:33:29.634Z,97468.00
2022-08-03T15:35:57.248Z,97477.00
2022-08-03T15:38:26.168Z,97472.00
2022-08-03T15:40:54.967Z,97468.00
2022-08-03T15:43:23.642Z,97466.00
2022-08-03T15:46:18.981Z,97468.00
2022-08-03T15:48:38.336Z,97469.00
2022-08-03T15:51:06.620Z,97462.00
2022-08-03T15:53:33.908Z,97461.00
2022-08-03T15:56:05.246Z,97465.00
2022-08-03T15:59:03.204Z,97461.00
2022-08-03T16:01:26.591Z,97461.00
2022-08-03T16:03:53.537Z,97460.00
2022-08-03T16:06:34.789Z,97451.00
2022-08-03T16:09:24.218Z,97451.00
2022-08-03T16:11:53.497Z,97455.00
2022-08-03T16:14:32.671Z,97455.00
2022-08-03T16:17:03.751Z,97448.00
2022-08-03T16:19:30.879Z,97459.00
2022-08-03T16:21:57.837Z,97446.00
2022-08-03T16:24:27.905Z,97460.00
2022-08-03T16:26:56.002Z,97449.00
2022-08-03T16:29:26.054Z,97435.00
2022-08-03T16:31:53.186Z,97451.00
2022-08-03T16:34:21.099Z,97436.00
2022-08-03T16:36:48.110Z,97439.00
2022-08-03T16:39:16.048Z,97438.00
2022-08-03T16:41:54.315Z,97440.00
2022-08-03T16:44:30.769Z,97428.00
2022-08-03T16:46:59.374Z,97444.00
2022-08-03T16:49:53.638Z,97431.00
2022-08-03T16:52:18.766Z,97440.00
2022-08-03T16:54:52.750Z,97434.00
2022-08-03T16:57:55.787Z,97436.00
2022-08-03T17:00:11.703Z,97433.00
2022-08-03T17:02:48.203Z,97441.00
2022-08-03T17:05:15.502Z,97450.00
2022-08-03T17:07:46.889Z,97439.00
2022-08-03T17:10:21.842Z,97445.00
2022-08-03T17:12:53.959Z,97443.00
2022-08-03T17:15:37.962Z,97435.00
2022-08-03T17:18:17.688Z,97436.00
2022-08-03T17:20:47.022Z,97431.00
2022-08-03T17:23:44.274Z,97432.00
2022-08-03T17:26:21.178Z,97437.00
2022-08-03T17:28:58.174Z,97438.00
2022-08-03T17:31:31.606Z,97450.00
2022-08-03T17:34:04.640Z,97447.00
2022-08-03T17:37:02.550Z,97434.00
2022-08-03T17:39:42.151Z,97446.00
2022-08-03T17:42:29.155Z,97443.00
2022-08-03T17:44:57.652Z,97439.00
2022-08-03T17:50:25.378Z,97452.00
2022-08-03T17:53:07.236Z,97461.00
2022-08-03T17:55:56.942Z,97451.00
2022-08-03T17:59:02.019Z,97460.00
2022-08-03T18:02:47.576Z,97454.00
2022-08-03T18:05:21.999Z,97459.00
2022-08-03T18:08:01.635Z,97457.00
2022-08-03T18:10:35.974Z,97451.00
2022-08-03T18:13:11.308Z,97452.00
2022-08-03T18:15:49.231Z,97454.00
2022-08-03T18:18:29.257Z,97451.00
2022-08-03T18:21:04.841Z,97442.00
2022-08-03T18:23:37.509Z,97452.00
2022-08-03T18:26:12.062Z,97443.00
2022-08-03T18:28:40.546Z,97442.00
2022-08-03T18:31:11.824Z,97449.00
2022-08-03T18:34:17.263Z,97438.00
2022-08-03T18:36:31.837Z,97445.00
2022-08-03T18:39:02.713Z,97451.00
2022-08-03T18:41:35.128Z,97453.00
2022-08-03T18:44:06.976Z,97452.00
2022-08-03T18:47:16.388Z,97442.00
2022-08-03T18:50:14.588Z,97455.00
2022-08-03T18:53:23.059Z,97454.00
2022-08-03T18:56:37.311Z,97451.00
2022-08-03T18:59:30.750Z,97454.00
2022-08-03T19:02:10.133Z,97445.00
2022-08-03T19:04:47.658Z,97441.00
2022-08-03T19:07:25.776Z,97453.00
2022-08-03T19:09:58.288Z,97456.00
2022-08-03T19:12:39.593Z,97455.00
2022-08-03T19:15:12.875Z,97456.00
2022-08-03T19:17:52.898Z,97466.00
2022-08-03T19:20:28.115Z,97476.00
2022-08-03T19:22:57.985Z,97470.00
2022-08-03T19:25:34.575Z,97473.00
2022-08-03T19:28:05.830Z,97468.00
2022-08-03T19:30:53.229Z,97479.00
2022-08-03T19:33:21.540Z,97464.00
2022-08-03T19:35:54.637Z,97470.00
2022-08-03T19:38:28.567Z,97477.00
2022-08-03T19:41:03.928Z,97488.00
2022-08-03T19:44:04.493Z,97481.00
2022-08-03T19:46:43.326Z,97490.00
2022-08-03T19:49:17.233Z,97485.00
2022-08-03T19:52:01.514Z,97477.00
2022-08-03T19:54:53.929Z,97488.00
2022-08-03T19:57:25.317Z,97487.00
2022-08-03T19:59:55.320Z,97486.00
2022-08-03T20:02:26.327Z,97478.00
2022-08-03T20:04:59.939Z,97473.00
2022-08-03T20:07:30.681Z,97480.00
2022-08-03T20:10:01.908Z,97490.00
2022-08-03T20:12:38.589Z,97488.00
2022-08-03T20:15:07.720Z,97465.00
2022-08-03T20:17:56.201Z,97470.00
2022-08-03T20:20:32.976Z,97462.00
2022-08-03T20:23:06.969Z,97470.00
2022-08-03T20:25:48.905Z,97480.00
2022-08-03T20:28:50.314Z,97478.00
2022-08-03T20:31:23.828Z,97473.00
2022-08-03T20:33:57.458Z,97481.00
2022-08-03T20:36:24.682Z,97478.00
2022-08-03T20:38:58.022Z,97472.00
2022-08-03T20:41:25.369Z,97489.00
2022-08-03T20:43:52.496Z,97477.00
2022-08-03T20:46:31.114Z,97471.00
2022-08-03T20:49:05.623Z,97477.00
2022-08-03T20:51:49.602Z,97484.00
2022-08-03T20:54:29.389Z,97487.00
2022-08-03T20:59:51.134Z,97479.00
2022-08-03T21:02:29.959Z,97483.00
2022-08-03T21:05:03.718Z,97473.00
2022-08-03T21:08:05.715Z,97481.00
2022-08-03T21:10:32.351Z,97461.00
2022-08-03T21:13:04.252Z,97435.00
2022-08-03T21:13:07.725Z,97493.00
2022-08-03T21:13:18.866Z,97463.00
2022-08-03T21:16:03.303Z,97476.00
2022-08-03T21:18:51.382Z,97451.00
2022-08-03T21:21:22.975Z,97467.00
2022-08-03T21:23:53.966Z,97458.00
2022-08-03T21:26:24.930Z,97475.00
2022-08-03T21:28:55.934Z,97464.00
2022-08-03T21:31:26.244Z,97459.00
2022-08-03T21:34:05.331Z,97455.00
2022-08-03T21:36:38.865Z,97452.00
2022-08-03T21:39:09.976Z,97467.00
2022-08-03T21:41:39.727Z,97460.00
2022-08-03T21:44:08.410Z,97467.00
2022-08-03T21:46:41.253Z,97457.00
2022-08-03T21:49:51.841Z,97465.00
2022-08-03T21:52:01.364Z,97470.00
2022-08-03T21:54:42.929Z,97465.00
2022-08-03T21:57:24.256Z,97459.00
2022-08-03T22:00:06.988Z,97467.00
2022-08-03T22:02:57.278Z,97453.00
2022-08-03T22:05:29.015Z,97464.00
2022-08-03T22:08:12.866Z,97452.00
2022-08-03T22:10:40.928Z,97455.00
2022-08-03T22:13:08.053Z,97453.00
2022-08-03T22:15:35.070Z,97457.00
2022-08-03T22:18:03.564Z,97457.00
2022-08-03T22:20:31.150Z,97459.00
2022-08-03T22:23:04.211Z,97472.00
2022-08-03T22:25:35.137Z,97460.00
2022-08-03T22:28:11.914Z,97467.00
2022-08-03T22:30:41.150Z,97472.00
2022-08-03T22:33:11.978Z,97463.00
2022-08-03T22:35:55.666Z,97470.00
2022-08-03T22:38:25.838Z,97467.00
2022-08-03T22:40:53.456Z,97453.00
2022-08-03T22:43:27.773Z,97459.00
2022-08-03T22:46:10.513Z,97464.00
2022-08-03T22:48:41.312Z,97459.00
2022-08-03T22:51:09.935Z,97461.00
2022-08-03T22:53:39.125Z,97463.00
2022-08-03T22:56:06.627Z,97462.00
2022-08-03T22:58:33.580Z,97460.00
2022-08-03T23:01:09.017Z,97461.00
2022-08-03T23:04:00.204Z,97460.00
2022-08-03T23:06:38.971Z,97458.00
2022-08-03T23:09:11.913Z,97447.00
2022-08-03T23:11:45.714Z,97449.00
2022-08-03T23:14:19.272Z,97455.00
2022-08-03T23:16:47.861Z,97456.00
2022-08-03T23:19:25.677Z,97463.00
2022-08-03T23:22:00.723Z,97460.00
2022-08-03T23:24:33.164Z,97453.00
2022-08-03T23:27:04.396Z,97456.00
2022-08-03T23:29:34.876Z,97452.00
2022-08-03T23:32:04.553Z,97455.00
2022-08-03T23:34:51.771Z,97452.00
2022-08-03T23:37:20.317Z,97454.00
2022-08-03T23:39:48.966Z,97448.00
2022-08-03T23:42:19.615Z,97446.00
2022-08-03T23:44:46.826Z,97456.00
2022-08-03T23:47:14.435Z,97444.00
2022-08-03T23:49:41.565Z,97457.00
2022-08-03T23:52:26.683Z,97457.00
2022-08-03T23:55:18.047Z,97457.00
2022-08-03T23:58:01.800Z,97454.00
